createdAt,value
2023-04-02T00:04:20.315Z,8.10
2023-04-02T00:09:20.245Z,7.00
2023-04-02T00:14:20.185Z,6.50
2023-04-02T00:19:20.095Z,13.20
2023-04-02T00:24:20.040Z,12.90
2023-04-02T00:29:20.009Z,13.20
2023-04-02T00:34:19.929Z,16.30
2023-04-02T00:39:19.899Z,17.10
2023-04-02T00:44:19.861Z,17.20
2023-04-02T00:49:20.791Z,17.80
2023-04-02T00:54:19.831Z,23.30
2023-04-02T00:59:20.718Z,20.80
2023-04-02T01:04:21.629Z,24.60
2023-04-02T01:09:20.593Z,16.70
2023-04-02T01:14:19.485Z,21.90
2023-04-02T01:19:19.570Z,18.90
2023-04-02T01:24:19.443Z,22.00
2023-04-02T01:29:19.351Z,21.20
2023-04-02T01:34:19.304Z,21.40
2023-04-02T01:41:37.627Z,17.80
2023-04-02T01:46:37.658Z,15.80
2023-04-02T01:51:37.477Z,12.90
2023-04-02T01:56:37.477Z,10.70
2023-04-02T02:01:37.417Z,12.90
2023-04-02T02:06:37.360Z,9.50
2023-04-02T02:11:37.285Z,9.70
2023-04-02T02:16:37.211Z,9.90
2023-04-02T02:21:37.152Z,9.00
2023-04-02T02:26:37.204Z,10.70
2023-04-02T02:31:37.107Z,8.70
2023-04-02T02:36:36.982Z,9.00
2023-04-02T02:41:37.057Z,11.20
2023-04-02T02:46:36.919Z,9.70
2023-04-02T02:51:36.899Z,8.90
2023-04-02T02:56:36.807Z,9.80
2023-04-02T03:01:36.883Z,11.40
2023-04-02T03:06:36.855Z,8.70
2023-04-02T03:11:36.726Z,9.50
2023-04-02T03:16:36.624Z,9.70
2023-04-02T03:21:36.613Z,13.60
2023-04-02T03:26:36.540Z,9.80
2023-04-02T03:31:36.474Z,10.90
2023-04-02T03:36:37.382Z,8.00
2023-04-02T03:41:36.337Z,9.60
2023-04-02T03:46:36.322Z,9.60
2023-04-02T03:51:36.245Z,12.20
2023-04-02T03:56:36.345Z,9.90
2023-04-02T04:01:36.169Z,10.00
2023-04-02T04:06:36.070Z,9.10
2023-04-02T04:11:35.984Z,9.70
2023-04-02T04:16:36.063Z,9.50
2023-04-02T04:21:35.883Z,10.10
2023-04-02T04:26:35.795Z,10.30
2023-04-02T04:31:35.777Z,14.40
2023-04-02T04:36:35.816Z,15.80
2023-04-02T04:41:35.712Z,16.30
2023-04-02T04:46:35.653Z,20.50
2023-04-02T04:51:35.627Z,21.00
2023-04-02T04:56:35.569Z,18.40
2023-04-02T05:01:35.602Z,17.80
2023-04-02T05:06:35.495Z,17.60
2023-04-02T05:11:35.397Z,23.50
2023-04-02T05:16:35.358Z,29.90
2023-04-02T05:21:35.318Z,27.70
2023-04-02T05:26:35.278Z,34.70
2023-04-02T05:31:35.201Z,32.10
2023-04-02T05:36:35.044Z,33.00
2023-04-02T05:41:35.162Z,28.50
2023-04-02T05:46:35.023Z,34.90
2023-04-02T05:51:34.911Z,30.00
2023-04-02T05:56:34.872Z,34.80
2023-04-02T06:01:34.898Z,29.70
2023-04-02T06:06:34.716Z,30.60
2023-04-02T06:11:34.730Z,33.00
2023-04-02T06:16:34.644Z,29.80
2023-04-02T06:21:34.668Z,29.90
2023-04-02T06:26:34.505Z,26.10
2023-04-02T06:31:34.453Z,31.10
2023-04-02T06:36:34.395Z,32.00
2023-04-02T06:41:34.368Z,32.50
2023-04-02T06:46:34.390Z,25.60
2023-04-02T06:51:34.412Z,31.80
2023-04-02T06:56:34.332Z,39.90
2023-04-02T07:01:34.181Z,27.10
2023-04-02T07:06:34.096Z,31.00
2023-04-02T07:11:34.670Z,24.40
2023-04-02T07:16:34.257Z,21.90
2023-04-02T07:21:34.105Z,22.70
2023-04-02T07:26:33.908Z,19.00
2023-04-02T07:31:33.947Z,21.90
2023-04-02T07:36:34.123Z,17.30
2023-04-02T07:41:35.456Z,17.60
2023-04-02T07:46:42.492Z,19.30
2023-04-02T07:51:33.507Z,21.10
2023-04-02T07:56:33.444Z,20.50
2023-04-02T08:01:33.370Z,24.80
2023-04-02T08:06:33.384Z,14.60
2023-04-02T08:11:33.356Z,20.70
2023-04-02T08:16:33.301Z,13.40
2023-04-02T08:21:33.159Z,14.70
2023-04-02T08:26:33.100Z,14.30
2023-04-02T08:31:33.050Z,13.60
2023-04-02T08:36:33.006Z,14.60
2023-04-02T08:41:32.968Z,11.30
2023-04-02T08:46:32.971Z,13.00
2023-04-02T08:51:32.865Z,14.70
2023-04-02T08:56:32.769Z,11.10
2023-04-02T09:01:32.774Z,12.30
2023-04-02T09:06:32.680Z,8.80
2023-04-02T09:11:32.643Z,9.10
2023-04-02T09:16:32.628Z,10.60
2023-04-02T09:21:32.615Z,7.50
2023-04-02T09:26:32.516Z,8.20
2023-04-02T09:31:32.459Z,11.60
2023-04-02T09:36:32.441Z,9.30
2023-04-02T09:41:32.371Z,9.00
2023-04-02T09:46:32.323Z,8.80
2023-04-02T09:51:32.196Z,10.50
2023-04-02T09:56:32.175Z,10.90
2023-04-02T10:01:32.195Z,11.00
2023-04-02T10:06:32.075Z,7.60
2023-04-02T10:11:43.742Z,11.90
2023-04-02T10:16:33.349Z,6.50
2023-04-02T10:21:31.887Z,7.90
2023-04-02T10:26:35.299Z,7.00
2023-04-02T10:31:32.797Z,9.20
2023-04-02T10:36:31.744Z,8.30
2023-04-02T10:41:31.672Z,8.60
2023-04-02T10:46:31.637Z,8.40
2023-04-02T10:51:32.974Z,20.70
2023-04-02T10:56:44.188Z,7.70
2023-04-02T11:01:32.598Z,10.00
2023-04-02T11:06:32.359Z,6.20
2023-04-02T11:11:32.194Z,8.80
2023-04-02T11:16:31.345Z,8.70
2023-04-02T11:21:31.235Z,9.30
2023-04-02T11:26:31.190Z,9.00
2023-04-02T11:31:31.186Z,6.20
2023-04-02T11:36:31.145Z,6.70
2023-04-02T11:41:31.054Z,7.40
2023-04-02T11:46:31.035Z,7.10
2023-04-02T11:51:30.945Z,7.80
2023-04-02T11:56:30.858Z,10.60
2023-04-02T12:01:31.815Z,9.80
2023-04-02T12:06:30.857Z,7.40
2023-04-02T12:11:31.692Z,6.60
2023-04-02T12:16:30.782Z,9.50
2023-04-02T12:21:30.599Z,6.90
2023-04-02T12:26:30.522Z,11.20
2023-04-02T12:31:30.489Z,7.20
2023-04-02T12:36:30.375Z,7.10
2023-04-02T12:41:30.527Z,7.20
2023-04-02T12:46:30.495Z,7.80
2023-04-02T12:51:30.240Z,6.20
2023-04-02T12:56:30.155Z,6.70
2023-04-02T13:01:30.148Z,6.80
2023-04-02T13:06:30.075Z,6.70
2023-04-02T13:11:31.069Z,6.30
2023-04-02T13:16:30.063Z,8.80
2023-04-02T13:21:29.868Z,5.10
2023-04-02T13:26:29.831Z,5.10
2023-04-02T13:31:29.849Z,8.90
2023-04-02T13:36:29.797Z,11.10
2023-04-02T13:41:29.707Z,35.60
2023-04-02T13:46:29.623Z,5.20
2023-04-02T13:51:29.650Z,10.80
2023-04-02T13:56:29.520Z,5.90
2023-04-02T14:01:29.556Z,7.50
2023-04-02T14:06:29.462Z,13.60
2023-04-02T14:11:29.344Z,9.30
2023-04-02T14:16:29.400Z,9.70
2023-04-02T14:21:29.281Z,13.70
2023-04-02T14:26:29.146Z,7.00
2023-04-02T14:31:29.122Z,17.60
2023-04-02T14:36:29.104Z,6.40
2023-04-02T14:41:29.037Z,6.40
2023-04-02T14:46:28.949Z,9.60
2023-04-02T14:51:28.844Z,7.90
2023-04-02T14:56:28.864Z,15.70
2023-04-02T15:01:28.789Z,25.50
2023-04-02T15:06:28.747Z,23.50
2023-04-02T15:11:28.647Z,6.40
2023-04-02T15:16:28.650Z,15.60
2023-04-02T15:21:28.553Z,8.70
2023-04-02T15:26:28.561Z,5.70
2023-04-02T15:31:28.479Z,6.30
2023-04-02T15:36:28.483Z,4.90
2023-04-02T15:41:28.454Z,7.80
2023-04-02T15:46:28.495Z,9.60
2023-04-02T15:51:28.209Z,7.30
2023-04-02T15:56:28.166Z,4.60
2023-04-02T16:01:28.136Z,6.40
2023-04-02T16:06:28.134Z,7.40
2023-04-02T16:11:28.020Z,5.40
2023-04-02T16:16:27.977Z,8.90
2023-04-02T16:21:27.888Z,6.50
2023-04-02T16:26:27.855Z,7.60
2023-04-02T16:31:27.842Z,6.30
2023-04-02T16:36:27.796Z,20.00
2023-04-02T16:41:27.671Z,6.30
2023-04-02T16:46:39.005Z,5.60
2023-04-02T16:51:28.548Z,6.30
2023-04-02T16:56:27.513Z,6.00
2023-04-02T17:01:27.470Z,6.70
2023-04-02T17:06:27.427Z,6.20
2023-04-02T17:11:27.346Z,5.60
2023-04-02T17:16:27.309Z,4.90
2023-04-02T17:21:27.219Z,19.30
2023-04-02T17:26:27.225Z,5.80
2023-04-02T17:31:27.135Z,46.90
2023-04-02T17:36:27.041Z,24.30
2023-04-02T17:41:27.030Z,64.60
2023-04-02T17:46:27.056Z,8.30
2023-04-02T17:51:26.944Z,9.30
2023-04-02T17:56:26.855Z,7.40
2023-04-02T18:01:26.796Z,10.20
2023-04-02T18:06:26.724Z,11.60
2023-04-02T18:11:26.671Z,8.50
2023-04-02T18:16:26.649Z,14.10
2023-04-02T18:21:35.498Z,11.70
2023-04-02T18:26:26.607Z,4.80
2023-04-02T18:31:26.680Z,12.30
2023-04-02T18:36:26.460Z,6.40
2023-04-02T18:41:26.446Z,7.30
2023-04-02T18:46:26.390Z,7.70
2023-04-02T18:51:26.337Z,17.00
2023-04-02T18:56:26.250Z,9.70
2023-04-02T19:01:26.323Z,13.90
2023-04-02T19:06:26.150Z,12.80
2023-04-02T19:11:26.085Z,16.20
2023-04-02T19:16:26.215Z,16.90
2023-04-02T19:21:25.951Z,9.10
2023-04-02T19:26:25.926Z,13.70
2023-04-02T19:31:25.936Z,14.80
2023-04-02T19:36:25.834Z,10.70
2023-04-02T19:41:25.753Z,7.00
2023-04-02T19:46:25.697Z,11.30
2023-04-02T19:51:25.609Z,8.40
2023-04-02T19:56:25.586Z,14.10
2023-04-02T20:01:25.606Z,9.20
2023-04-02T20:06:25.449Z,9.60
2023-04-02T20:11:25.406Z,9.90
2023-04-02T20:16:25.358Z,10.50
2023-04-02T20:21:25.355Z,8.80
2023-04-02T20:26:25.266Z,10.30
2023-04-02T20:31:25.228Z,12.30
2023-04-02T20:36:25.216Z,24.70
2023-04-02T20:41:25.117Z,16.00
2023-04-02T20:46:25.103Z,13.70
2023-04-02T20:51:25.082Z,14.30
2023-04-02T20:56:24.934Z,17.60
2023-04-02T21:01:24.971Z,14.90
2023-04-02T21:06:24.808Z,14.40
2023-04-02T21:11:24.797Z,10.20
2023-04-02T21:16:24.715Z,10.00
2023-04-02T21:21:24.659Z,12.90
2023-04-02T21:26:24.593Z,16.60
2023-04-02T21:31:24.593Z,18.50
2023-04-02T21:36:24.496Z,13.40
2023-04-02T21:41:24.498Z,27.30
2023-04-02T21:46:24.416Z,19.60
2023-04-02T21:51:24.408Z,18.30
2023-04-02T21:56:24.332Z,17.40
2023-04-02T22:01:27.679Z,13.70
2023-04-02T22:06:24.186Z,13.90
2023-04-02T22:11:24.136Z,15.60
2023-04-02T22:16:24.155Z,18.40
2023-04-02T22:21:24.025Z,18.20
2023-04-02T22:26:23.932Z,20.40
2023-04-02T22:31:23.930Z,19.40
2023-04-02T22:36:23.846Z,16.50
2023-04-02T22:41:23.822Z,16.60
2023-04-02T22:46:23.778Z,25.00
2023-04-02T22:51:23.663Z,26.90
2023-04-02T22:56:23.594Z,40.10
2023-04-02T23:01:23.604Z,52.70
2023-04-02T23:06:23.530Z,32.20
2023-04-02T23:11:23.499Z,34.90
2023-04-02T23:16:23.515Z,23.00
2023-04-02T23:21:23.381Z,17.90
2023-04-02T23:26:23.363Z,19.00
2023-04-02T23:31:23.302Z,17.90
2023-04-02T23:36:23.221Z,19.80
2023-04-02T23:41:23.161Z,16.70
2023-04-02T23:46:23.223Z,21.80
2023-04-02T23:51:23.029Z,18.50
2023-04-02T23:56:22.993Z,20.40
